Terminal Aerodrome Forecast
Issued by NWS

Home | Current Version | Previous Version | Text Only | Print | Product List | Glossary On
Versions: 1 2 3 4 5 6 7 8 9 10 11 12 13 14 15 16 17 18 19 20 21 22
793
FTUS43 KDTX 301739
TAFMBS
TAF
KMBS 301739Z 3018/3118 24009KT P6SM SCT040 BKN100
     FM302000 24009KT P6SM BKN040 BKN100
      TEMPO 3020/3023 3SM TSRA SCT022 OVC035CB
     FM302300 24005KT P6SM BKN040 BKN080
     FM310400 26005KT 6SM BR BKN022 OVC040
     FM310900 33005KT 4SM BR BKN012
     FM311400 35009KT P6SM BKN015=

USA.gov is the U.S. government's official web portal to all federal, state and local government web resources and services.